Time;durP1;ratioP1;P1;durP2;ratioP2;P2;SDS_P1;SDS_P2;PMS_P1;PMS_P2;Temp;Humidity;BMP_temperature;BMP_pressure;BME280_temperature;BME280_humidity;BME280_pressure;Samples;Min_cycle;Max_cycle;Signal;HPM_P1;HPM_P2
2023/04/08 00:02:07;;;;;;;79.07;64.60;;;;;;;;;;4989026;28;20026;-79
2023/04/08 00:04:32;;;;;;;124.68;97.45;;;;;;;;;;4988587;28;20322;-79
2023/04/08 00:06:57;;;;;;;119.50;97.25;;;;;;;;;;4995995;28;20034;-79
2023/04/08 00:09:22;;;;;;;143.90;113.53;;;;;;;;;;4994283;28;20030;-79
2023/04/08 00:11:48;;;;;;;100.72;80.60;;;;;;;;;;4994317;28;20022;-79
2023/04/08 00:14:13;;;;;;;72.40;60.05;;;;;;;;;;5027331;28;20080;-79
2023/04/08 00:16:38;;;;;;;65.00;54.53;;;;;;;;;;4993330;28;20064;-78
2023/04/08 00:19:05;;;;;;;69.78;55.53;;;;;;;;;;4987495;28;20034;-78
2023/04/08 00:21:31;;;;;;;60.88;48.05;;;;;;;;;;4987994;28;20445;-78
2023/04/08 00:23:56;;;;;;;81.63;64.43;;;;;;;;;;5009642;28;20186;-78
2023/04/08 00:26:21;;;;;;;78.13;62.30;;;;;;;;;;4996556;28;20022;-77
2023/04/08 00:28:47;;;;;;;90.55;68.53;;;;;;;;;;4985798;28;20125;-78
2023/04/08 00:31:12;;;;;;;102.15;78.88;;;;;;;;;;4993688;28;20033;-78
2023/04/08 00:33:37;;;;;;;111.30;88.05;;;;;;;;;;4986873;28;20077;-78
2023/04/08 00:36:02;;;;;;;100.18;77.00;;;;;;;;;;4990288;28;20026;-78
2023/04/08 00:38:28;;;;;;;107.70;79.80;;;;;;;;;;4986681;28;20365;-79
2023/04/08 00:40:53;;;;;;;96.20;71.60;;;;;;;;;;4990339;28;20365;-80
2023/04/08 00:43:20;;;;;;;82.47;61.90;;;;;;;;;;4993518;28;20113;-78
2023/04/08 00:45:46;;;;;;;77.97;59.55;;;;;;;;;;4992303;28;20087;-79
2023/04/08 00:48:11;;;;;;;116.35;83.15;;;;;;;;;;4935990;28;1220429;-77
2023/04/08 00:50:37;;;;;;;116.40;86.63;;;;;;;;;;4987562;28;20103;-77
2023/04/08 00:53:02;;;;;;;94.63;67.53;;;;;;;;;;5012482;28;20057;-78
2023/04/08 00:55:27;;;;;;;99.40;70.28;;;;;;;;;;4991941;28;20088;-79
2023/04/08 00:57:53;;;;;;;92.28;67.78;;;;;;;;;;4992561;28;20026;-78
2023/04/08 01:00:18;;;;;;;69.97;54.38;;;;;;;;;;4987832;28;20042;-78
2023/04/08 01:02:50;;;;;;;55.75;43.50;;;;;;;;;;5010739;28;20030;-77
2023/04/08 01:05:21;;;;;;;51.30;40.25;;;;;;;;;;4983893;28;20024;-78
2023/04/08 01:07:47;;;;;;;81.28;55.72;;;;;;;;;;4992436;28;20057;-79
2023/04/08 01:10:18;;;;;;;56.67;42.70;;;;;;;;;;4992468;28;20065;-80
2023/04/08 01:12:47;;;;;;;39.38;33.28;;;;;;;;;;4987790;28;20512;-79
2023/04/08 01:15:13;;;;;;;33.95;30.17;;;;;;;;;;4995362;28;20076;-78
2023/04/08 01:17:39;;;;;;;36.10;31.33;;;;;;;;;;4996273;28;20125;-80
2023/04/08 01:20:05;;;;;;;37.30;32.22;;;;;;;;;;4991393;28;20029;-79
2023/04/08 01:22:53;;;;;;;37.63;32.72;;;;;;;;;;4987084;28;20448;-79
2023/04/08 01:25:21;;;;;;;40.70;36.38;;;;;;;;;;4995289;28;20034;-78
2023/04/08 01:27:48;;;;;;;47.83;41.13;;;;;;;;;;4994328;28;20044;-78
2023/04/08 01:30:14;;;;;;;53.47;47.47;;;;;;;;;;4993215;28;20030;-77
2023/04/08 01:32:40;;;;;;;87.78;70.82;;;;;;;;;;4995282;28;20025;-79
2023/04/08 01:35:06;;;;;;;91.32;74.95;;;;;;;;;;4992963;28;20349;-79
2023/04/08 01:37:32;;;;;;;62.83;52.92;;;;;;;;;;4994979;28;20093;-79
2023/04/08 01:39:58;;;;;;;56.20;48.17;;;;;;;;;;4996936;28;20433;-77
2023/04/08 01:42:24;;;;;;;60.47;52.25;;;;;;;;;;4994411;28;20449;-80
2023/04/08 01:44:51;;;;;;;80.97;65.60;;;;;;;;;;4996406;28;20040;-80
2023/04/08 01:47:17;;;;;;;120.85;88.35;;;;;;;;;;4997693;28;20042;-79
2023/04/08 01:49:43;;;;;;;67.75;56.08;;;;;;;;;;4990208;28;20028;-77
2023/04/08 01:52:08;;;;;;;55.95;49.72;;;;;;;;;;4995963;28;20374;-80
2023/04/08 01:54:34;;;;;;;51.67;46.03;;;;;;;;;;4998934;28;20068;-79
2023/04/08 01:57:01;;;;;;;58.60;50.60;;;;;;;;;;4999074;28;20025;-78
2023/04/08 01:59:28;;;;;;;64.78;54.40;;;;;;;;;;4999690;28;20029;-78
2023/04/08 02:01:54;;;;;;;52.75;47.17;;;;;;;;;;4998483;28;20084;-77
2023/04/08 02:04:19;;;;;;;53.88;48.00;;;;;;;;;;4998790;28;20053;-76
2023/04/08 02:06:45;;;;;;;57.25;51.20;;;;;;;;;;4991614;28;20341;-79
2023/04/08 02:09:11;;;;;;;66.72;58.85;;;;;;;;;;4991703;28;20025;-76
2023/04/08 02:11:36;;;;;;;64.10;56.05;;;;;;;;;;4999620;28;20034;-76
2023/04/08 02:14:01;;;;;;;56.13;49.95;;;;;;;;;;4998080;28;20022;-76
2023/04/08 02:16:26;;;;;;;52.75;46.75;;;;;;;;;;4999830;28;20053;-77
2023/04/08 02:18:57;;;;;;;48.25;43.05;;;;;;;;;;4996464;28;20026;-77
2023/04/08 02:21:26;;;;;;;46.50;41.53;;;;;;;;;;4997276;28;20034;-77
2023/04/08 02:23:52;;;;;;;47.00;42.13;;;;;;;;;;5011984;28;20356;-78
2023/04/08 02:26:19;;;;;;;56.15;50.17;;;;;;;;;;4995330;28;20038;-79
2023/04/08 02:28:47;;;;;;;52.92;47.13;;;;;;;;;;4996498;28;20097;-78
2023/04/08 02:31:12;;;;;;;54.45;46.42;;;;;;;;;;4995824;28;20552;-79
2023/04/08 02:33:38;;;;;;;60.45;52.28;;;;;;;;;;4988906;28;20034;-79
2023/04/08 02:36:04;;;;;;;77.00;64.78;;;;;;;;;;4994934;28;20026;-79
2023/04/08 02:38:30;;;;;;;82.18;67.43;;;;;;;;;;4997136;28;20120;-79
2023/04/08 02:40:55;;;;;;;71.90;57.83;;;;;;;;;;4994655;28;20026;-78
2023/04/08 02:43:25;;;;;;;79.85;62.08;;;;;;;;;;4996853;28;20159;-79
2023/04/08 02:45:50;;;;;;;66.25;56.45;;;;;;;;;;4996015;28;20046;-79
2023/04/08 02:48:16;;;;;;;64.38;55.55;;;;;;;;;;4996046;28;20096;-79
2023/04/08 02:50:41;;;;;;;72.40;59.00;;;;;;;;;;4998162;28;20049;-80
2023/04/08 02:53:07;;;;;;;69.95;57.80;;;;;;;;;;4997477;28;20378;-77
2023/04/08 02:55:32;;;;;;;71.40;59.67;;;;;;;;;;4997083;28;20034;-77
2023/04/08 02:57:58;;;;;;;64.78;54.38;;;;;;;;;;4998140;28;20042;-77
2023/04/08 03:00:23;;;;;;;69.25;56.72;;;;;;;;;;4998964;28;20029;-77
2023/04/08 03:02:48;;;;;;;73.25;59.15;;;;;;;;;;4997114;28;20021;-77
2023/04/08 03:05:15;;;;;;;77.80;61.42;;;;;;;;;;4999146;28;20034;-77
2023/04/08 03:07:41;;;;;;;81.72;65.65;;;;;;;;;;4996288;28;20104;-77
2023/04/08 03:10:06;;;;;;;81.75;65.85;;;;;;;;;;4996778;28;20375;-76
2023/04/08 03:12:31;;;;;;;62.42;50.53;;;;;;;;;;4997559;28;20069;-78
2023/04/08 03:14:57;;;;;;;61.80;51.15;;;;;;;;;;4995867;28;20109;-79
2023/04/08 03:17:22;;;;;;;59.78;50.05;;;;;;;;;;4988377;28;20042;-76
2023/04/08 03:19:47;;;;;;;73.13;61.58;;;;;;;;;;4997463;28;20038;-79
2023/04/08 03:22:13;;;;;;;73.50;59.92;;;;;;;;;;4998280;28;20453;-77
2023/04/08 03:24:38;;;;;;;75.82;59.67;;;;;;;;;;4996682;28;20036;-78
2023/04/08 03:27:04;;;;;;;72.45;61.00;;;;;;;;;;4987071;28;20111;-77
2023/04/08 03:29:29;;;;;;;91.57;76.88;;;;;;;;;;4995663;28;20064;-79
2023/04/08 03:31:54;;;;;;;93.32;71.88;;;;;;;;;;5009723;28;20306;-79
2023/04/08 03:34:20;;;;;;;59.40;48.92;;;;;;;;;;4995494;28;20030;-78
2023/04/08 03:36:45;;;;;;;75.22;58.15;;;;;;;;;;4996025;28;20037;-78
2023/04/08 03:39:10;;;;;;;80.03;62.10;;;;;;;;;;4996737;28;20022;-78
2023/04/08 03:41:36;;;;;;;80.50;62.20;;;;;;;;;;4998481;28;20105;-79
2023/04/08 03:44:01;;;;;;;79.32;62.72;;;;;;;;;;4993605;28;20444;-77
2023/04/08 03:46:26;;;;;;;80.63;66.07;;;;;;;;;;4995688;28;20050;-78
2023/04/08 03:48:51;;;;;;;83.28;64.45;;;;;;;;;;4996645;28;20049;-77
2023/04/08 03:51:17;;;;;;;86.05;68.35;;;;;;;;;;4995212;28;20101;-79
2023/04/08 03:53:42;;;;;;;62.63;51.88;;;;;;;;;;4995973;28;20390;-78
2023/04/08 03:56:07;;;;;;;40.58;34.67;;;;;;;;;;4994195;28;20104;-79
2023/04/08 03:58:33;;;;;;;39.50;34.55;;;;;;;;;;4996760;28;20030;-78
2023/04/08 04:00:58;;;;;;;37.22;32.03;;;;;;;;;;4997175;28;20042;-78
2023/04/08 04:03:23;;;;;;;36.00;32.30;;;;;;;;;;4992963;28;20026;-81
2023/04/08 04:05:49;;;;;;;39.28;35.10;;;;;;;;;;4983152;28;20026;-79
2023/04/08 04:08:14;;;;;;;38.67;34.38;;;;;;;;;;4996710;28;20034;-80
2023/04/08 04:10:39;;;;;;;38.42;34.47;;;;;;;;;;4996232;28;20103;-78
2023/04/08 04:13:05;;;;;;;36.15;32.33;;;;;;;;;;4994691;28;20026;-78
2023/04/08 04:15:30;;;;;;;61.15;52.22;;;;;;;;;;4994198;28;20715;-79
2023/04/08 04:17:56;;;;;;;57.83;50.50;;;;;;;;;;4992244;28;20438;-78
2023/04/08 04:20:21;;;;;;;47.28;42.35;;;;;;;;;;4996546;28;20025;-79
2023/04/08 04:22:46;;;;;;;39.35;35.42;;;;;;;;;;4995867;28;20022;-78
2023/04/08 04:25:12;;;;;;;33.85;30.38;;;;;;;;;;4995575;28;20022;-79
2023/04/08 04:27:37;;;;;;;37.97;33.53;;;;;;;;;;4995612;28;20523;-79
2023/04/08 04:30:03;;;;;;;56.30;44.58;;;;;;;;;;4994046;28;20034;-80
2023/04/08 04:32:28;;;;;;;48.88;42.88;;;;;;;;;;4995566;28;20121;-81
2023/04/08 04:34:54;;;;;;;50.25;44.75;;;;;;;;;;4995261;28;20156;-79
2023/04/08 04:37:19;;;;;;;49.45;44.08;;;;;;;;;;4995172;28;20034;-79
2023/04/08 04:39:44;;;;;;;47.97;42.55;;;;;;;;;;4990740;28;20071;-79
2023/04/08 04:42:10;;;;;;;52.15;46.45;;;;;;;;;;4996709;28;20341;-79
2023/04/08 04:44:35;;;;;;;55.13;49.30;;;;;;;;;;4994496;28;20330;-79
2023/04/08 04:47:00;;;;;;;49.35;44.20;;;;;;;;;;4996228;28;20446;-79
2023/04/08 04:49:26;;;;;;;49.05;43.83;;;;;;;;;;4994161;28;20075;-81
2023/04/08 04:51:51;;;;;;;63.25;56.35;;;;;;;;;;4994670;28;20026;-79
2023/04/08 04:54:16;;;;;;;64.60;57.30;;;;;;;;;;4992965;28;20493;-79
2023/04/08 04:56:41;;;;;;;61.83;55.20;;;;;;;;;;4994701;28;22367;-79
2023/04/08 04:59:07;;;;;;;63.00;56.35;;;;;;;;;;4979726;28;20030;-79
2023/04/08 05:01:33;;;;;;;74.65;65.93;;;;;;;;;;4974168;28;20035;-79
2023/04/08 05:03:58;;;;;;;178.32;130.52;;;;;;;;;;4990506;28;20403;-79
2023/04/08 05:06:23;;;;;;;179.98;135.55;;;;;;;;;;4977027;28;20022;-78
2023/04/08 05:08:50;;;;;;;184.90;146.05;;;;;;;;;;4975134;28;20041;-78
2023/04/08 05:11:17;;;;;;;104.72;90.25;;;;;;;;;;4974615;28;20331;-78
2023/04/08 05:13:42;;;;;;;151.32;125.40;;;;;;;;;;4970798;28;20027;-77
2023/04/08 05:16:07;;;;;;;219.63;169.02;;;;;;;;;;4977895;28;20168;-78
2023/04/08 05:18:33;;;;;;;146.63;123.28;;;;;;;;;;4977517;28;20124;-78
2023/04/08 05:20:58;;;;;;;144.18;121.15;;;;;;;;;;4972821;28;20033;-77
2023/04/08 05:23:23;;;;;;;112.35;98.10;;;;;;;;;;4975372;28;20129;-77
2023/04/08 05:25:49;;;;;;;125.85;106.07;;;;;;;;;;4979130;28;20457;-76
2023/04/08 05:28:14;;;;;;;114.55;96.05;;;;;;;;;;4975353;28;20062;-76
2023/04/08 05:30:39;;;;;;;106.20;91.18;;;;;;;;;;4979726;28;20437;-77
2023/04/08 05:33:05;;;;;;;80.22;71.43;;;;;;;;;;4976789;28;20117;-77
2023/04/08 05:35:30;;;;;;;83.20;74.45;;;;;;;;;;4990454;28;20029;-77
2023/04/08 05:37:55;;;;;;;72.25;64.70;;;;;;;;;;5000006;28;20047;-78
2023/04/08 05:40:21;;;;;;;68.63;61.17;;;;;;;;;;4998862;28;20062;-76
2023/04/08 05:42:46;;;;;;;103.80;88.68;;;;;;;;;;4990589;28;20058;-78
2023/04/08 05:45:11;;;;;;;229.88;181.65;;;;;;;;;;4997133;28;20033;-79
2023/04/08 05:47:37;;;;;;;177.85;138.63;;;;;;;;;;4999732;28;20380;-78
2023/04/08 05:50:02;;;;;;;125.97;110.72;;;;;;;;;;4994488;28;20107;-79
2023/04/08 05:52:27;;;;;;;131.80;114.32;;;;;;;;;;4999880;28;20033;-78
2023/04/08 05:54:53;;;;;;;119.40;99.32;;;;;;;;;;4987826;28;20030;-77
2023/04/08 05:57:18;;;;;;;250.73;180.30;;;;;;;;;;4996710;28;20049;-76
2023/04/08 05:59:44;;;;;;;137.95;102.97;;;;;;;;;;4998380;28;20092;-77
2023/04/08 06:02:09;;;;;;;199.30;160.50;;;;;;;;;;4996884;28;20025;-77
2023/04/08 06:04:34;;;;;;;218.15;190.18;;;;;;;;;;4981631;28;20053;-80
2023/04/08 06:07:01;;;;;;;110.75;93.85;;;;;;;;;;5018692;28;20125;-79
2023/04/08 06:09:27;;;;;;;84.22;74.97;;;;;;;;;;4995015;28;20069;-78
2023/04/08 06:11:52;;;;;;;73.88;64.22;;;;;;;;;;4994369;28;20045;-77
2023/04/08 06:14:19;;;;;;;92.20;80.38;;;;;;;;;;4986183;28;20466;-76
2023/04/08 06:16:44;;;;;;;90.40;78.38;;;;;;;;;;4995486;28;20346;-76
2023/04/08 06:19:10;;;;;;;82.43;71.53;;;;;;;;;;4988461;28;20041;-76
2023/04/08 06:21:35;;;;;;;70.95;62.90;;;;;;;;;;4984243;28;20413;-77
2023/04/08 06:24:00;;;;;;;69.40;58.60;;;;;;;;;;4986087;28;20037;-75
2023/04/08 06:26:26;;;;;;;71.85;64.25;;;;;;;;;;5001288;28;20036;-76
2023/04/08 06:28:52;;;;;;;74.07;64.70;;;;;;;;;;4984762;28;20216;-77
2023/04/08 06:31:17;;;;;;;88.22;78.75;;;;;;;;;;4983767;28;20449;-77
2023/04/08 06:33:42;;;;;;;81.05;72.72;;;;;;;;;;4986780;28;20030;-76
2023/04/08 06:36:08;;;;;;;63.22;56.53;;;;;;;;;;4984794;28;20025;-77
2023/04/08 06:38:33;;;;;;;102.30;88.70;;;;;;;;;;4975050;28;20037;-75
2023/04/08 06:41:03;;;;;;;75.28;64.95;;;;;;;;;;4976030;28;20053;-76
2023/04/08 06:43:29;;;;;;;72.43;64.47;;;;;;;;;;4975811;28;20042;-78
2023/04/08 06:45:54;;;;;;;68.25;59.92;;;;;;;;;;4985798;28;20057;-78
2023/04/08 06:48:22;;;;;;;62.25;55.67;;;;;;;;;;4991971;28;20081;-78
2023/04/08 06:50:47;;;;;;;66.10;57.63;;;;;;;;;;4998922;28;20022;-81
2023/04/08 06:53:12;;;;;;;80.65;67.32;;;;;;;;;;4987793;28;20083;-79
2023/04/08 06:55:38;;;;;;;89.32;76.47;;;;;;;;;;4981514;28;20087;-78
2023/04/08 06:58:03;;;;;;;75.30;66.15;;;;;;;;;;4994103;28;20022;-77
2023/04/08 07:00:29;;;;;;;58.63;52.28;;;;;;;;;;4996109;28;20034;-79
2023/04/08 07:02:54;;;;;;;102.60;85.55;;;;;;;;;;4986013;28;20334;-78
2023/04/08 07:05:20;;;;;;;92.05;78.13;;;;;;;;;;4981873;28;20054;-78
2023/04/08 07:07:45;;;;;;;66.53;59.38;;;;;;;;;;4982442;28;20124;-76
2023/04/08 07:10:11;;;;;;;52.92;47.35;;;;;;;;;;4989444;28;20026;-78
2023/04/08 07:12:37;;;;;;;44.33;39.85;;;;;;;;;;4988349;28;20026;-77
2023/04/08 07:15:02;;;;;;;111.03;99.35;;;;;;;;;;4983805;28;20022;-78
2023/04/08 07:17:28;;;;;;;52.72;47.10;;;;;;;;;;4991025;28;20065;-78
2023/04/08 07:19:53;;;;;;;60.83;54.30;;;;;;;;;;4997762;28;20042;-78
2023/04/08 07:22:18;;;;;;;116.93;101.32;;;;;;;;;;4994892;28;20025;-77
2023/04/08 07:24:48;;;;;;;42.85;38.22;;;;;;;;;;4983191;28;20101;-78
2023/04/08 07:27:13;;;;;;;52.15;46.70;;;;;;;;;;4979257;28;20026;-79
2023/04/08 07:29:39;;;;;;;114.10;99.50;;;;;;;;;;4979105;28;20040;-80
2023/04/08 07:32:04;;;;;;;68.30;60.42;;;;;;;;;;4985974;28;20528;-79
2023/04/08 07:34:30;;;;;;;51.63;46.13;;;;;;;;;;4994497;28;20030;-77
2023/04/08 07:36:55;;;;;;;45.95;39.40;;;;;;;;;;4994699;28;20429;-78
2023/04/08 07:39:20;;;;;;;42.60;35.92;;;;;;;;;;4985016;28;20018;-76
2023/04/08 07:41:45;;;;;;;49.33;44.22;;;;;;;;;;4983152;28;20066;-78
2023/04/08 07:44:11;;;;;;;53.97;48.20;;;;;;;;;;4987759;28;20026;-81
2023/04/08 07:46:37;;;;;;;48.53;43.30;;;;;;;;;;4994519;28;20042;-77
2023/04/08 07:49:03;;;;;;;54.65;48.70;;;;;;;;;;4991135;28;20058;-76
2023/04/08 07:51:28;;;;;;;58.28;52.22;;;;;;;;;;4989445;28;20445;-78
2023/04/08 07:53:54;;;;;;;62.00;55.30;;;;;;;;;;4995098;28;20144;-78
2023/04/08 07:56:20;;;;;;;58.05;52.08;;;;;;;;;;4997265;28;20029;-78
2023/04/08 07:58:45;;;;;;;36.72;32.92;;;;;;;;;;4985674;28;20120;-79
2023/04/08 08:01:18;;;;;;;50.28;42.55;;;;;;;;;;4983429;28;20113;-78
2023/04/08 08:03:44;;;;;;;35.28;31.58;;;;;;;;;;4989655;28;20089;-78
2023/04/08 08:06:12;;;;;;;114.40;68.53;;;;;;;;;;4984104;28;20018;-79
2023/04/08 08:08:38;;;;;;;46.35;41.53;;;;;;;;;;4993129;28;20048;-79
2023/04/08 08:11:03;;;;;;;51.22;45.80;;;;;;;;;;4995670;28;20446;-77
2023/04/08 08:13:28;;;;;;;49.28;43.92;;;;;;;;;;4990239;28;20030;-76
2023/04/08 08:15:54;;;;;;;48.20;43.17;;;;;;;;;;4993773;28;20358;-78
2023/04/08 08:18:20;;;;;;;58.00;49.10;;;;;;;;;;4993689;28;20144;-77
2023/04/08 08:20:45;;;;;;;43.80;35.22;;;;;;;;;;4986344;28;20421;-78
2023/04/08 08:23:10;;;;;;;141.60;84.10;;;;;;;;;;4998524;28;20449;-78
2023/04/08 08:25:36;;;;;;;61.90;44.95;;;;;;;;;;4982898;28;20045;-77
2023/04/08 08:28:01;;;;;;;42.47;32.45;;;;;;;;;;4981740;28;20035;-77
2023/04/08 08:30:27;;;;;;;50.53;38.97;;;;;;;;;;4998544;28;20040;-74
2023/04/08 08:32:53;;;;;;;30.85;27.83;;;;;;;;;;4981766;28;20516;-77
2023/04/08 08:35:18;;;;;;;22.88;20.58;;;;;;;;;;4982047;28;20172;-77
2023/04/08 08:37:44;;;;;;;30.08;25.52;;;;;;;;;;4988434;28;20029;-76
2023/04/08 08:40:09;;;;;;;35.70;29.70;;;;;;;;;;4994554;28;20080;-79
2023/04/08 08:42:35;;;;;;;27.42;24.45;;;;;;;;;;4994590;28;20489;-77
2023/04/08 08:45:03;;;;;;;32.55;27.40;;;;;;;;;;4998202;28;20096;-78
2023/04/08 08:47:29;;;;;;;25.83;23.17;;;;;;;;;;4996003;28;20346;-77
2023/04/08 08:49:55;;;;;;;162.30;110.38;;;;;;;;;;4998258;28;20056;-77
2023/04/08 08:52:20;;;;;;;42.10;32.15;;;;;;;;;;4995677;28;20133;-77
2023/04/08 08:54:46;;;;;;;48.00;38.90;;;;;;;;;;4999157;28;20057;-77
2023/04/08 08:57:18;;;;;;;40.05;34.47;;;;;;;;;;4998362;28;20061;-77
2023/04/08 08:59:44;;;;;;;24.30;21.80;;;;;;;;;;4998340;28;20113;-78
2023/04/08 09:02:27;;;;;;;39.03;33.88;;;;;;;;;;5000401;28;20034;-79
2023/04/08 09:04:57;;;;;;;42.33;35.03;;;;;;;;;;4999411;28;20031;-78
2023/04/08 09:07:24;;;;;;;30.58;26.13;;;;;;;;;;4995356;28;20036;-76
2023/04/08 09:09:50;;;;;;;40.58;34.83;;;;;;;;;;4996022;28;20033;-77
2023/04/08 09:12:15;;;;;;;49.53;42.90;;;;;;;;;;5000527;28;20088;-77
2023/04/08 09:14:41;;;;;;;50.63;39.88;;;;;;;;;;5009922;28;20408;-76
2023/04/08 09:17:07;;;;;;;71.72;52.13;;;;;;;;;;4998113;28;20029;-76
2023/04/08 09:19:32;;;;;;;34.17;29.63;;;;;;;;;;4999203;28;20030;-78
2023/04/08 09:22:05;;;;;;;77.40;54.35;;;;;;;;;;4999808;28;20022;-75
2023/04/08 09:24:31;;;;;;;49.53;39.13;;;;;;;;;;4998990;28;20029;-76
2023/04/08 09:26:56;;;;;;;78.30;54.35;;;;;;;;;;4997121;28;20018;-77
2023/04/08 09:29:22;;;;;;;127.05;84.25;;;;;;;;;;4997177;28;20034;-76
2023/04/08 09:31:52;;;;;;;76.22;54.35;;;;;;;;;;4999638;28;20033;-78
2023/04/08 09:34:19;;;;;;;;;;;;;;;;;;4996215;28;20409;-77
2023/04/08 09:36:45;;;;;;;33.53;27.05;;;;;;;;;;4998088;28;20352;-77
2023/04/08 09:39:10;;;;;;;45.28;33.70;;;;;;;;;;4998035;28;20018;-78
2023/04/08 09:41:37;;;;;;;37.80;29.63;;;;;;;;;;4998706;28;20337;-79
2023/04/08 09:44:04;;;;;;;24.45;21.48;;;;;;;;;;5000125;28;20149;-79
2023/04/08 09:46:48;;;;;;;29.55;22.35;;;;;;;;;;4997864;28;20038;-77
2023/04/08 09:49:43;;;;;;;27.02;21.85;;;;;;;;;;4998815;28;20182;-78
2023/04/08 09:52:20;;;;;;;38.42;32.50;;;;;;;;;;4957469;28;20046;-77
2023/04/08 09:54:58;;;;;;;50.47;38.10;;;;;;;;;;4957361;28;20042;-79
2023/04/08 09:57:27;;;;;;;43.45;33.33;;;;;;;;;;4957232;28;20152;-78
2023/04/08 10:00:00;;;;;;;63.27;50.00;;;;;;;;;;4959013;28;20093;-78
2023/04/08 10:02:29;;;;;;;32.38;28.63;;;;;;;;;;4954556;28;20031;-78
2023/04/08 10:04:55;;;;;;;;;;;;;;;;;;4957023;28;20038;-79
2023/04/08 10:07:20;;;;;;;16.40;14.77;;;;;;;;;;4958284;28;20358;-77
2023/04/08 10:09:45;;;;;;;16.13;14.52;;;;;;;;;;4958176;28;20447;-78
2023/04/08 10:12:11;;;;;;;28.08;21.40;;;;;;;;;;4957028;28;20098;-76
2023/04/08 10:14:36;;;;;;;13.13;11.82;;;;;;;;;;4957074;28;20133;-78
2023/04/08 10:17:20;;;;;;;18.88;16.85;;;;;;;;;;4954027;28;20034;-79
2023/04/08 10:19:45;;;;;;;75.32;58.58;;;;;;;;;;4973635;28;20050;-78
2023/04/08 10:22:33;;;;;;;36.45;30.38;;;;;;;;;;4959511;28;20101;-79
2023/04/08 10:25:14;;;;;;;28.50;25.23;;;;;;;;;;4934928;28;20038;-78
2023/04/08 10:27:43;;;;;;;18.70;16.85;;;;;;;;;;4961783;28;20045;-78
2023/04/08 10:30:26;;;;;;;15.90;14.30;;;;;;;;;;4997749;28;20038;-77
2023/04/08 10:32:55;;;;;;;19.05;17.10;;;;;;;;;;4997395;28;20084;-77
2023/04/08 10:35:41;;;;;;;19.60;17.70;;;;;;;;;;4990913;28;20057;-78
2023/04/08 10:38:07;;;;;;;13.05;11.38;;;;;;;;;;4986889;28;20507;-77
2023/04/08 10:40:40;;;;;;;23.52;20.23;;;;;;;;;;4984523;28;20030;-77
2023/04/08 10:43:06;;;;;;;15.52;14.00;;;;;;;;;;4981102;28;20032;-77
2023/04/08 10:45:31;;;;;;;14.02;12.52;;;;;;;;;;4976471;28;20030;-78
2023/04/08 10:48:10;;;;;;;52.33;42.33;;;;;;;;;;4974953;28;20458;-79
2023/04/08 10:50:35;;;;;;;14.27;12.77;;;;;;;;;;4972887;28;20115;-77
2023/04/08 10:53:01;;;;;;;18.33;15.90;;;;;;;;;;4973644;28;20173;-79
2023/04/08 10:55:27;;;;;;;24.48;21.88;;;;;;;;;;4977282;28;20443;-78
2023/04/08 10:57:52;;;;;;;11.68;10.57;;;;;;;;;;4989954;28;20030;-78
2023/04/08 11:00:19;;;;;;;13.40;12.00;;;;;;;;;;4995280;28;20061;-78
2023/04/08 11:02:44;;;;;;;22.17;18.27;;;;;;;;;;4993619;28;20029;-78
2023/04/08 11:05:09;;;;;;;39.40;31.40;;;;;;;;;;4983102;28;20044;-78
2023/04/08 11:07:41;;;;;;;14.10;12.70;;;;;;;;;;4983781;28;20465;-77
2023/04/08 11:10:07;;;;;;;13.82;12.52;;;;;;;;;;4993294;28;20033;-79
2023/04/08 11:12:32;;;;;;;21.33;17.60;;;;;;;;;;4992536;28;20026;-78
2023/04/08 11:14:58;;;;;;;24.83;21.92;;;;;;;;;;4983251;28;20133;-78
2023/04/08 11:17:23;;;;;;;22.30;18.45;;;;;;;;;;4987336;28;20130;-78
2023/04/08 11:19:49;;;;;;;12.50;11.20;;;;;;;;;;4976524;28;20026;-78
2023/04/08 11:22:15;;;;;;;13.90;12.30;;;;;;;;;;4974897;28;20037;-81
2023/04/08 11:24:40;;;;;;;10.73;9.73;;;;;;;;;;4976692;28;20119;-78
2023/04/08 11:27:06;;;;;;;17.58;15.65;;;;;;;;;;4984895;28;20456;-78
2023/04/08 11:29:32;;;;;;;13.40;12.10;;;;;;;;;;4984039;28;20604;-74
2023/04/08 11:31:57;;;;;;;13.27;12.02;;;;;;;;;;4985625;28;21287;-78
2023/04/08 11:34:23;;;;;;;11.02;9.95;;;;;;;;;;4984109;28;20026;-80
2023/04/08 11:36:49;;;;;;;12.30;11.00;;;;;;;;;;4975927;28;20125;-80
2023/04/08 11:39:14;;;;;;;14.07;12.65;;;;;;;;;;4988872;28;20187;-80
2023/04/08 11:41:40;;;;;;;21.45;18.77;;;;;;;;;;4992286;28;20034;-78
2023/04/08 11:44:06;;;;;;;16.98;14.50;;;;;;;;;;4991043;28;20472;-78
2023/04/08 11:46:31;;;;;;;11.77;10.63;;;;;;;;;;4995021;28;20054;-80
2023/04/08 11:49:00;;;;;;;9.63;8.82;;;;;;;;;;4991799;28;20052;-78
2023/04/08 11:51:26;;;;;;;11.52;10.50;;;;;;;;;;4980846;28;20338;-81
2023/04/08 11:53:52;;;;;;;12.15;10.95;;;;;;;;;;4979612;28;20129;-80
2023/04/08 11:56:18;;;;;;;15.93;13.85;;;;;;;;;;4989824;28;20111;-82
2023/04/08 11:58:43;;;;;;;10.20;9.02;;;;;;;;;;4997835;28;20040;-79
2023/04/08 12:01:08;;;;;;;11.13;10.10;;;;;;;;;;5003382;28;20029;-80
2023/04/08 12:03:34;;;;;;;19.08;16.30;;;;;;;;;;4972371;28;20022;-79
2023/04/08 12:05:59;;;;;;;17.35;14.82;;;;;;;;;;4981954;28;20026;-78
2023/04/08 12:08:24;;;;;;;17.15;14.70;;;;;;;;;;4978295;28;20371;-78
2023/04/08 12:10:50;;;;;;;10.98;9.90;;;;;;;;;;4981402;28;20462;-81
2023/04/08 12:13:15;;;;;;;11.82;10.23;;;;;;;;;;4995939;28;20499;-80
2023/04/08 12:15:41;;;;;;;12.88;11.35;;;;;;;;;;5002655;28;20373;-79
2023/04/08 12:18:06;;;;;;;9.48;8.63;;;;;;;;;;4983556;28;20160;-75
2023/04/08 12:20:31;;;;;;;12.43;11.25;;;;;;;;;;4979768;28;20030;-75
2023/04/08 12:22:57;;;;;;;22.75;18.77;;;;;;;;;;4981107;28;20022;-78
2023/04/08 12:25:22;;;;;;;24.45;20.75;;;;;;;;;;4987791;28;20058;-78
2023/04/08 12:27:47;;;;;;;17.45;15.52;;;;;;;;;;4983764;28;20087;-77
2023/04/08 12:30:13;;;;;;;28.67;25.58;;;;;;;;;;5000263;28;20054;-78
2023/04/08 12:32:38;;;;;;;16.20;14.65;;;;;;;;;;4978765;28;20034;-78
2023/04/08 12:35:04;;;;;;;14.57;13.18;;;;;;;;;;4971662;28;20104;-80
2023/04/08 12:37:29;;;;;;;23.13;19.75;;;;;;;;;;4971855;28;20148;-79
2023/04/08 12:39:55;;;;;;;13.43;10.40;;;;;;;;;;4970278;28;20041;-79
2023/04/08 12:42:20;;;;;;;15.40;13.75;;;;;;;;;;4969469;28;20485;-78
2023/04/08 12:44:45;;;;;;;20.30;16.05;;;;;;;;;;4988077;28;20084;-78
2023/04/08 12:47:11;;;;;;;24.15;21.55;;;;;;;;;;4971345;28;20097;-78
2023/04/08 12:49:36;;;;;;;17.90;15.90;;;;;;;;;;4972035;28;20073;-78
2023/04/08 12:52:02;;;;;;;23.25;20.83;;;;;;;;;;4972905;28;20669;-79
2023/04/08 12:54:27;;;;;;;19.13;17.13;;;;;;;;;;4978459;28;20025;-78
2023/04/08 12:56:53;;;;;;;16.83;15.05;;;;;;;;;;4988768;28;20345;-80
2023/04/08 12:59:18;;;;;;;18.25;16.45;;;;;;;;;;4973671;28;20025;-79
2023/04/08 13:01:43;;;;;;;21.17;18.17;;;;;;;;;;4977077;28;20068;-80
2023/04/08 13:04:09;;;;;;;14.93;13.07;;;;;;;;;;4973176;28;20103;-78
2023/04/08 13:06:34;;;;;;;16.08;14.40;;;;;;;;;;4975282;28;20061;-78
2023/04/08 13:09:00;;;;;;;16.77;15.18;;;;;;;;;;4987950;28;20418;-78
2023/04/08 13:11:25;;;;;;;20.20;17.52;;;;;;;;;;4974335;28;20034;-79
2023/04/08 13:13:51;;;;;;;23.23;20.73;;;;;;;;;;4976155;28;20073;-79
2023/04/08 13:16:16;;;;;;;21.08;18.90;;;;;;;;;;4973652;28;20034;-76
2023/04/08 13:18:41;;;;;;;15.73;14.18;;;;;;;;;;4971366;28;20373;-77
2023/04/08 13:21:07;;;;;;;16.83;15.23;;;;;;;;;;4984593;28;20062;-78
2023/04/08 13:23:32;;;;;;;17.80;16.00;;;;;;;;;;5010600;28;20361;-79
2023/04/08 13:25:58;;;;;;;13.73;12.32;;;;;;;;;;4998769;28;20093;-78
2023/04/08 13:28:23;;;;;;;12.43;11.32;;;;;;;;;;4986136;28;20441;-80
2023/04/08 13:30:48;;;;;;;16.33;14.57;;;;;;;;;;4991741;28;20144;-78
2023/04/08 13:33:14;;;;;;;13.40;12.20;;;;;;;;;;4985960;28;20038;-77
2023/04/08 13:35:39;;;;;;;15.18;12.02;;;;;;;;;;4990077;28;20034;-79
2023/04/08 13:38:05;;;;;;;14.60;13.20;;;;;;;;;;4989878;28;20100;-77
2023/04/08 13:40:30;;;;;;;14.93;13.52;;;;;;;;;;4996010;28;20093;-79
2023/04/08 13:42:56;;;;;;;14.95;13.55;;;;;;;;;;5014248;28;20026;-79
2023/04/08 13:45:21;;;;;;;12.75;11.55;;;;;;;;;;4998310;28;20133;-79
2023/04/08 13:47:46;;;;;;;14.43;13.00;;;;;;;;;;4991949;28;20057;-80
2023/04/08 13:50:12;;;;;;;31.50;28.45;;;;;;;;;;4994512;28;20434;-78
2023/04/08 13:52:37;;;;;;;14.25;12.85;;;;;;;;;;4994079;28;20022;-79
2023/04/08 13:55:02;;;;;;;16.10;14.60;;;;;;;;;;4999176;28;20446;-79
2023/04/08 13:57:28;;;;;;;15.55;14.02;;;;;;;;;;4997999;28;20049;-80
2023/04/08 13:59:53;;;;;;;13.93;12.73;;;;;;;;;;4997804;28;20081;-78
2023/04/08 14:02:18;;;;;;;15.13;13.35;;;;;;;;;;5026576;28;20065;-80
2023/04/08 14:04:44;;;;;;;12.38;11.30;;;;;;;;;;4997891;28;20033;-78
2023/04/08 14:07:10;;;;;;;13.15;12.05;;;;;;;;;;4992154;28;20408;-79
2023/04/08 14:09:36;;;;;;;13.90;12.52;;;;;;;;;;4990860;28;20049;-79
2023/04/08 14:12:01;;;;;;;12.40;11.30;;;;;;;;;;4997638;28;20022;-79